Terminal Aerodrome Forecast
Issued by NWS

Home | Current Version | Previous Version | Text Only | Print | Product List | Glossary On
Versions: 1 2 3 4 5 6 7 8 9 10 11 12 13 14 15 16 17 18 19 20 21 22 23 24 25 26 27 28 29 30 31 32 33 34 35 36 37 38 39 40 41 42 43 44 45 46 47 48 49
000
FTUS44 KHGX 031511 AAA
TAFLBX
TAF AMD
KLBX 031511Z 0315/0412 36005KT 4SM RA BR VCTS SCT008 BKN035CB
     FM031600 27014KT 4SM -RA BR VCTS SCT008 BKN015CB
      TEMPO 0316/0319 1SM +TSRA OVC005CB
     FM031900 17015KT 3SM TSRA BR BKN007 OVC010CB
     FM040000 15010KT 4SM TSRA BR BKN007 OVC010CB
     FM040700 36009KT 3SM SHRA VCTS OVC007CB=

USA.gov is the U.S. government's official web portal to all federal, state and local government web resources and services.